createdAt,value
2018-04-15T00:00:52.267Z,9.10
2018-04-15T00:03:21.574Z,9.23
2018-04-15T00:05:50.631Z,9.03
2018-04-15T00:08:18.931Z,9.10
2018-04-15T00:10:48.170Z,9.67
2018-04-15T00:13:18.282Z,8.87
2018-04-15T00:15:46.839Z,8.60
2018-04-15T00:18:15.779Z,10.30
2018-04-15T00:20:44.844Z,10.77
2018-04-15T00:23:13.134Z,10.80
2018-04-15T00:25:43.281Z,11.33
2018-04-15T00:28:12.343Z,10.20
2018-04-15T00:30:40.637Z,10.97
2018-04-15T00:33:09.837Z,11.07
2018-04-15T00:35:38.123Z,11.90
2018-04-15T00:38:06.413Z,10.43
2018-04-15T00:40:35.589Z,10.13
2018-04-15T00:43:03.929Z,11.03
2018-04-15T00:45:32.960Z,11.93
2018-04-15T00:48:02.763Z,11.77
2018-04-15T00:50:32.410Z,10.77
2018-04-15T00:53:00.710Z,11.60
2018-04-15T00:55:30.316Z,10.83
2018-04-15T00:57:58.588Z,11.10
2018-04-15T01:00:26.873Z,9.67
2018-04-15T01:02:55.980Z,10.50
2018-04-15T01:05:24.307Z,10.43
2018-04-15T01:07:54.305Z,10.17
2018-04-15T01:10:23.434Z,10.30
2018-04-15T01:12:51.733Z,9.47
2018-04-15T01:15:20.852Z,10.97
2018-04-15T01:17:49.542Z,9.93
2018-04-15T01:20:17.832Z,12.07
2018-04-15T01:22:46.904Z,10.50
2018-04-15T01:25:15.845Z,10.73
2018-04-15T01:27:44.913Z,9.30
2018-04-15T01:30:15.296Z,10.13
2018-04-15T01:32:43.914Z,10.37
2018-04-15T01:35:13.335Z,9.83
2018-04-15T01:37:42.423Z,10.30
2018-04-15T01:40:10.716Z,9.77
2018-04-15T01:42:39.730Z,9.33
2018-04-15T01:45:08.026Z,9.50
2018-04-15T01:47:37.077Z,9.67
2018-04-15T01:50:06.678Z,10.50
2018-04-15T01:52:36.365Z,10.27
2018-04-15T01:55:04.670Z,11.23
2018-04-15T01:57:34.103Z,12.07
2018-04-15T02:00:03.190Z,9.87
2018-04-15T02:02:31.519Z,9.97
2018-04-15T02:05:01.424Z,9.60
2018-04-15T02:07:29.737Z,9.10
2018-04-15T02:09:58.015Z,8.03
2018-04-15T02:12:26.765Z,10.20
2018-04-15T02:14:55.112Z,9.37
2018-04-15T02:17:23.396Z,9.47
2018-04-15T02:19:52.212Z,10.40
2018-04-15T02:22:20.493Z,10.40
2018-04-15T02:24:48.789Z,9.83
2018-04-15T02:27:17.100Z,9.93
2018-04-15T02:29:47.388Z,10.53
2018-04-15T02:32:15.632Z,9.00
2018-04-15T02:34:43.953Z,9.23
2018-04-15T02:37:12.859Z,11.00
2018-04-15T02:39:43.146Z,10.80
2018-04-15T02:42:11.830Z,9.73
2018-04-15T02:44:40.555Z,9.93
2018-04-15T02:47:08.829Z,8.90
2018-04-15T02:49:37.121Z,10.33
2018-04-15T02:52:06.786Z,9.60
2018-04-15T02:54:36.148Z,9.73
2018-04-15T02:57:04.436Z,9.35
2018-04-15T02:59:34.760Z,8.82
2018-04-15T03:02:03.817Z,8.85
2018-04-15T03:04:32.132Z,9.23
2018-04-15T03:07:01.047Z,9.03
2018-04-15T03:09:29.326Z,9.50
2018-04-15T03:11:58.397Z,9.80
2018-04-15T03:14:27.397Z,9.13
2018-04-15T03:16:55.673Z,9.17
2018-04-15T03:19:23.978Z,9.80
2018-04-15T03:21:52.265Z,9.87
2018-04-15T03:24:21.142Z,10.13
2018-04-15T03:26:49.450Z,8.77
2018-04-15T03:29:18.537Z,8.48
2018-04-15T03:31:48.133Z,7.97
2018-04-15T03:34:17.185Z,8.10
2018-04-15T03:36:45.473Z,7.43
2018-04-15T03:39:13.770Z,9.27
2018-04-15T03:41:42.506Z,8.80
2018-04-15T03:44:10.790Z,8.10
2018-04-15T03:46:39.890Z,8.63
2018-04-15T03:49:10.025Z,8.70
2018-04-15T03:51:39.083Z,8.67
2018-04-15T03:54:07.364Z,8.07
2018-04-15T03:56:38.249Z,8.00
2018-04-15T03:59:06.537Z,7.43
2018-04-15T04:01:34.836Z,7.60
2018-04-15T04:04:03.983Z,6.30
2018-04-15T04:06:32.273Z,7.40
2018-04-15T04:09:01.326Z,7.87
2018-04-15T04:11:30.552Z,8.20
2018-04-15T04:13:59.599Z,7.80
2018-04-15T04:16:27.879Z,7.60
2018-04-15T04:19:08.796Z,7.67
2018-04-15T04:24:55.004Z,7.27
2018-04-15T04:27:24.080Z,7.45
2018-04-15T04:29:52.378Z,8.03
2018-04-15T04:32:21.984Z,7.50
2018-04-15T04:34:50.260Z,7.43
2018-04-15T04:37:18.633Z,7.70
2018-04-15T04:39:47.754Z,7.07
2018-04-15T04:42:16.041Z,7.43
2018-04-15T04:44:44.347Z,8.67
2018-04-15T04:47:13.834Z,7.67
2018-04-15T04:49:42.944Z,8.73
2018-04-15T04:52:12.389Z,9.23
2018-04-15T04:54:41.850Z,9.10
2018-04-15T04:57:12.460Z,8.77
2018-04-15T04:59:40.790Z,8.53
2018-04-15T05:02:10.269Z,7.67
2018-04-15T05:04:39.344Z,9.43
2018-04-15T05:07:07.637Z,7.90
2018-04-15T05:09:36.638Z,9.20
2018-04-15T05:12:04.949Z,8.13
2018-04-15T05:14:34.020Z,8.57
2018-04-15T05:17:02.887Z,8.87
2018-04-15T05:19:31.272Z,8.07
2018-04-15T05:21:59.586Z,7.27
2018-04-15T05:24:27.874Z,7.17
2018-04-15T05:26:57.222Z,7.50
2018-04-15T05:29:25.545Z,6.53
2018-04-15T05:31:53.840Z,6.50
2018-04-15T05:34:22.116Z,5.97
2018-04-15T05:36:52.020Z,5.83
2018-04-15T05:39:20.334Z,5.87
2018-04-15T05:41:49.370Z,6.20
2018-04-15T05:47:00.001Z,5.70
2018-04-15T05:49:28.282Z,5.97
2018-04-15T05:51:56.553Z,5.90
2018-04-15T05:54:25.549Z,5.50
2018-04-15T05:56:53.846Z,5.87
2018-04-15T05:59:24.009Z,7.77
2018-04-15T06:01:53.116Z,7.77
2018-04-15T06:04:21.406Z,6.33
2018-04-15T06:06:49.689Z,6.30
2018-04-15T06:09:18.356Z,6.90
2018-04-15T06:11:46.677Z,6.20
2018-04-15T06:14:14.981Z,6.83
2018-04-15T06:16:44.098Z,6.90
2018-04-15T06:19:13.138Z,6.83
2018-04-15T06:21:43.823Z,6.90
2018-04-15T06:24:12.097Z,6.80
2018-04-15T06:26:40.385Z,6.50
2018-04-15T06:29:10.290Z,6.20
2018-04-15T06:31:38.610Z,6.10
2018-04-15T06:34:06.887Z,5.73
2018-04-15T06:36:35.192Z,6.20
2018-04-15T06:39:05.173Z,5.53
2018-04-15T06:41:33.493Z,6.13
2018-04-15T06:44:01.821Z,5.57
2018-04-15T06:46:30.836Z,6.80
2018-04-15T06:48:59.879Z,6.03
2018-04-15T06:51:28.185Z,6.07
2018-04-15T06:53:57.146Z,5.43
2018-04-15T06:56:25.671Z,5.43
2018-04-15T06:58:55.516Z,5.57
2018-04-15T07:01:24.586Z,5.47
2018-04-15T07:03:55.992Z,5.03
2018-04-15T07:06:25.814Z,5.00
2018-04-15T07:08:54.141Z,5.53
2018-04-15T07:11:23.248Z,5.50
2018-04-15T07:13:51.550Z,6.43
2018-04-15T07:16:20.648Z,4.70
2018-04-15T07:18:49.733Z,4.93
2018-04-15T07:21:19.744Z,6.63
2018-04-15T07:23:48.827Z,5.40
2018-04-15T07:26:18.174Z,5.60
2018-04-15T07:28:47.156Z,5.70
2018-04-15T07:31:16.219Z,5.20
2018-04-15T07:33:45.358Z,5.10
2018-04-15T07:36:15.528Z,4.63
2018-04-15T07:38:43.951Z,5.20
2018-04-15T07:41:12.273Z,4.90
2018-04-15T07:43:41.040Z,4.53
2018-04-15T07:46:10.115Z,5.30
2018-04-15T07:48:38.488Z,5.40
2018-04-15T07:51:08.110Z,6.00
2018-04-15T07:53:37.506Z,6.00
2018-04-15T07:56:05.838Z,6.00
2018-04-15T07:58:35.040Z,6.40
2018-04-15T08:01:03.371Z,6.80
2018-04-15T08:03:31.884Z,6.67
2018-04-15T08:06:03.453Z,7.50
2018-04-15T08:08:31.820Z,6.80
2018-04-15T08:11:00.308Z,8.07
2018-04-15T08:13:29.089Z,6.47
2018-04-15T08:15:57.382Z,6.87
2018-04-15T08:18:26.667Z,6.73
2018-04-15T08:20:55.619Z,7.73
2018-04-15T08:23:24.084Z,6.80
2018-04-15T08:25:53.218Z,6.73
2018-04-15T08:28:22.691Z,7.00
2018-04-15T08:30:51.831Z,7.27
2018-04-15T08:33:20.170Z,7.03
2018-04-15T08:35:50.251Z,8.03
2018-04-15T08:38:19.439Z,7.47
2018-04-15T08:40:47.755Z,6.70
2018-04-15T08:43:17.090Z,7.30
2018-04-15T08:45:46.208Z,6.90
2018-04-15T08:48:14.722Z,7.43
2018-04-15T08:50:44.815Z,7.23
2018-04-15T08:53:13.164Z,7.63
2018-04-15T08:55:42.268Z,7.27
2018-04-15T08:58:12.478Z,7.17
2018-04-15T09:00:41.758Z,7.70
2018-04-15T09:03:10.266Z,6.80
2018-04-15T09:05:39.603Z,6.97
2018-04-15T09:08:09.263Z,6.90
2018-04-15T09:10:39.025Z,6.83
2018-04-15T09:13:09.036Z,6.87
2018-04-15T09:15:37.327Z,7.10
2018-04-15T09:18:06.373Z,7.03
2018-04-15T09:20:35.394Z,7.60
2018-04-15T09:23:04.123Z,7.53
2018-04-15T09:25:32.505Z,7.00
2018-04-15T09:28:00.974Z,7.80
2018-04-15T09:30:30.043Z,7.97
2018-04-15T09:32:58.358Z,7.50
2018-04-15T09:35:26.648Z,8.23
2018-04-15T09:37:57.239Z,7.50
2018-04-15T09:40:26.030Z,7.33
2018-04-15T09:42:54.338Z,7.97
2018-04-15T09:45:26.702Z,8.50
2018-04-15T09:47:55.903Z,9.17
2018-04-15T09:50:24.456Z,8.00
2018-04-15T09:52:53.791Z,9.27
2018-04-15T09:55:23.351Z,8.93
2018-04-15T09:57:52.061Z,8.70
2018-04-15T10:00:21.212Z,9.60
2018-04-15T10:02:50.877Z,9.13
2018-04-15T10:05:19.292Z,9.83
2018-04-15T10:07:47.958Z,9.70
2018-04-15T10:10:21.875Z,10.00
2018-04-15T10:12:50.506Z,9.73
2018-04-15T10:15:19.009Z,9.87
2018-04-15T10:17:48.398Z,9.77
2018-04-15T10:20:16.899Z,9.90
2018-04-15T10:22:45.297Z,10.70
2018-04-15T10:25:15.484Z,10.87
2018-04-15T10:27:45.133Z,10.50
2018-04-15T10:30:14.075Z,10.43
2018-04-15T10:32:43.519Z,9.80
2018-04-15T10:35:12.474Z,11.10
2018-04-15T10:37:41.673Z,10.17
2018-04-15T10:40:11.326Z,10.43
2018-04-15T10:42:40.813Z,11.97
2018-04-15T10:48:05.640Z,11.07
2018-04-15T10:50:36.135Z,10.67
2018-04-15T10:53:05.478Z,11.07
2018-04-15T10:55:34.205Z,11.80
2018-04-15T10:58:05.709Z,10.60
2018-04-15T11:00:35.620Z,11.00
2018-04-15T11:03:05.900Z,11.20
2018-04-15T11:05:34.572Z,10.93
2018-04-15T11:08:03.758Z,9.97
2018-04-15T11:10:34.448Z,10.90
2018-04-15T11:13:03.915Z,10.47
2018-04-15T11:15:34.537Z,11.17
2018-04-15T11:18:03.177Z,11.87
2018-04-15T11:20:31.879Z,10.83
2018-04-15T11:23:02.413Z,10.53
2018-04-15T11:25:31.005Z,11.10
2018-04-15T11:28:00.239Z,10.87
2018-04-15T11:30:29.967Z,11.10
2018-04-15T11:32:59.440Z,10.33
2018-04-15T11:35:27.821Z,11.20
2018-04-15T11:37:57.615Z,10.43
2018-04-15T11:40:27.359Z,9.57
2018-04-15T11:42:56.462Z,10.40
2018-04-15T11:45:27.686Z,10.37
2018-04-15T11:47:56.180Z,9.30
2018-04-15T11:50:28.888Z,10.93
2018-04-15T11:52:58.431Z,9.80
2018-04-15T11:55:26.814Z,10.30
2018-04-15T11:57:55.683Z,10.60
2018-04-15T12:00:25.048Z,9.97
2018-04-15T12:02:53.551Z,10.53
2018-04-15T12:05:24.433Z,9.80
2018-04-15T12:07:53.397Z,10.47
2018-04-15T12:10:23.236Z,10.73
2018-04-15T12:12:55.022Z,9.83
2018-04-15T12:15:29.757Z,10.97
2018-04-15T12:18:02.224Z,11.47
2018-04-15T12:20:33.674Z,10.40
2018-04-15T12:23:09.324Z,9.30
2018-04-15T12:25:42.527Z,10.40
2018-04-15T12:28:11.897Z,11.13
2018-04-15T12:30:42.818Z,10.07
2018-04-15T12:33:14.824Z,10.50
2018-04-15T12:35:45.027Z,10.63
2018-04-15T12:38:19.363Z,10.97
2018-04-15T12:40:47.897Z,10.40
2018-04-15T12:43:17.061Z,10.73
2018-04-15T12:45:46.405Z,11.27
2018-04-15T12:48:16.756Z,10.90
2018-04-15T12:50:47.019Z,10.43
2018-04-15T12:53:16.064Z,10.10
2018-04-15T12:55:47.760Z,12.17
2018-04-15T12:58:17.491Z,10.33
2018-04-15T13:00:46.880Z,10.27
2018-04-15T13:03:15.390Z,9.73
2018-04-15T13:05:45.557Z,10.70
2018-04-15T13:08:17.309Z,10.03
2018-04-15T13:10:48.329Z,10.93
2018-04-15T13:13:17.164Z,9.90
2018-04-15T13:15:49.451Z,10.30
2018-04-15T13:18:18.411Z,9.83
2018-04-15T13:20:49.684Z,9.33
2018-04-15T13:23:18.829Z,10.57
2018-04-15T13:25:51.019Z,9.73
2018-04-15T13:28:23.406Z,9.43
2018-04-15T13:30:53.855Z,9.60
2018-04-15T13:33:23.478Z,9.87
2018-04-15T13:35:53.137Z,9.27
2018-04-15T13:38:23.250Z,9.90
2018-04-15T13:40:56.595Z,9.00
2018-04-15T13:43:27.506Z,10.47
2018-04-15T13:45:57.325Z,9.57
2018-04-15T13:48:26.580Z,10.53
2018-04-15T13:50:56.168Z,10.17
2018-04-15T13:53:25.811Z,10.73
2018-04-15T13:55:54.206Z,9.80
2018-04-15T13:58:25.201Z,9.70
2018-04-15T14:00:57.320Z,9.47
2018-04-15T14:03:26.730Z,9.93
2018-04-15T14:05:55.159Z,9.37
2018-04-15T14:08:24.810Z,9.77
2018-04-15T14:10:53.441Z,10.03
2018-04-15T14:13:23.358Z,10.13
2018-04-15T14:15:52.975Z,9.63
2018-04-15T14:18:23.627Z,9.60
2018-04-15T14:20:52.830Z,10.33
2018-04-15T14:23:21.517Z,9.70
2018-04-15T14:25:53.594Z,10.23
2018-04-15T14:28:22.690Z,8.50
2018-04-15T14:30:52.338Z,8.90
2018-04-15T14:33:23.523Z,10.40
2018-04-15T14:35:54.582Z,9.83
2018-04-15T14:38:26.325Z,10.17
2018-04-15T14:40:55.671Z,10.50
2018-04-15T14:43:28.103Z,9.30
2018-04-15T14:45:56.942Z,10.13
2018-04-15T14:48:25.541Z,8.93
2018-04-15T14:50:58.239Z,10.93
2018-04-15T14:53:29.284Z,9.27
2018-04-15T14:55:58.645Z,9.57
2018-04-15T14:58:28.674Z,9.83
2018-04-15T15:00:57.147Z,9.40
2018-04-15T15:03:26.509Z,9.87
2018-04-15T15:05:54.814Z,9.90
2018-04-15T15:08:24.109Z,10.03
2018-04-15T15:10:53.880Z,8.47
2018-04-15T15:13:24.155Z,9.13
2018-04-15T15:15:52.521Z,9.00
2018-04-15T15:18:22.051Z,10.00
2018-04-15T15:20:50.601Z,9.60
2018-04-15T15:23:18.932Z,8.40
2018-04-15T15:25:49.570Z,8.87
2018-04-15T15:28:18.901Z,9.33
2018-04-15T15:30:47.192Z,9.30
2018-04-15T15:33:16.530Z,9.13
2018-04-15T15:35:44.829Z,8.70
2018-04-15T15:38:13.949Z,9.03
2018-04-15T15:40:45.555Z,8.60
2018-04-15T15:43:13.900Z,9.47
2018-04-15T15:45:44.566Z,9.10
2018-04-15T15:48:13.026Z,8.97
2018-04-15T15:50:42.121Z,9.63
2018-04-15T15:53:11.308Z,10.40
2018-04-15T15:55:39.680Z,9.40
2018-04-15T15:58:08.360Z,10.30
2018-04-15T16:00:37.698Z,9.20
2018-04-15T16:03:06.743Z,8.80
2018-04-15T16:05:35.225Z,10.80
2018-04-15T16:08:05.249Z,9.83
2018-04-15T16:10:33.714Z,10.67
2018-04-15T16:13:02.138Z,11.40
2018-04-15T16:15:33.460Z,10.70
2018-04-15T16:18:02.143Z,11.67
2018-04-15T16:20:30.622Z,11.20
2018-04-15T16:22:59.134Z,11.63
2018-04-15T16:25:28.875Z,9.40
2018-04-15T16:27:58.026Z,9.27
2018-04-15T16:30:27.875Z,10.23
2018-04-15T16:32:56.624Z,9.57
2018-04-15T16:35:25.249Z,9.53
2018-04-15T16:37:54.806Z,10.40
2018-04-15T16:40:23.280Z,8.80
2018-04-15T16:42:51.664Z,8.90
2018-04-15T16:45:21.171Z,8.20
2018-04-15T16:47:50.113Z,9.20
2018-04-15T16:50:18.942Z,9.53
2018-04-15T16:52:47.974Z,9.67
2018-04-15T16:55:16.964Z,9.93
2018-04-15T16:57:45.542Z,9.13
2018-04-15T17:00:15.796Z,9.43
2018-04-15T17:02:44.655Z,8.70
2018-04-15T17:05:13.336Z,8.10
2018-04-15T17:07:42.607Z,9.70
2018-04-15T17:10:11.115Z,12.00
2018-04-15T17:12:39.551Z,13.23
2018-04-15T17:15:09.709Z,13.80
2018-04-15T17:17:40.043Z,14.67
2018-04-15T17:20:09.128Z,13.40
2018-04-15T17:22:44.502Z,13.73
2018-04-15T17:25:13.323Z,15.90
2018-04-15T17:27:42.158Z,14.53
2018-04-15T17:30:13.921Z,13.80
2018-04-15T17:32:43.348Z,13.90
2018-04-15T17:35:12.584Z,13.63
2018-04-15T17:37:42.504Z,13.00
2018-04-15T17:40:11.816Z,13.47
2018-04-15T17:42:40.676Z,13.67
2018-04-15T17:45:10.812Z,12.93
2018-04-15T17:47:40.030Z,13.40
2018-04-15T17:50:10.369Z,12.53
2018-04-15T17:52:40.836Z,13.07
2018-04-15T17:55:09.313Z,13.20
2018-04-15T17:57:37.928Z,13.70
2018-04-15T18:00:07.338Z,14.20
2018-04-15T18:02:37.058Z,13.40
2018-04-15T18:05:06.394Z,14.20
2018-04-15T18:07:38.560Z,15.47
2018-04-15T18:10:08.129Z,14.00
2018-04-15T18:12:36.939Z,13.30
2018-04-15T18:15:16.753Z,15.00
2018-04-15T18:17:47.340Z,14.70
2018-04-15T18:20:18.117Z,14.20
2018-04-15T18:22:47.080Z,13.63
2018-04-15T18:25:16.873Z,13.47
2018-04-15T18:27:46.945Z,14.50
2018-04-15T18:30:15.663Z,13.67
2018-04-15T18:32:46.265Z,13.67
2018-04-15T18:35:16.396Z,13.90
2018-04-15T18:37:44.813Z,14.33
2018-04-15T18:40:13.534Z,15.10
2018-04-15T18:42:43.620Z,13.40
2018-04-15T18:45:14.439Z,14.93
2018-04-15T18:47:42.794Z,15.17
2018-04-15T18:50:11.621Z,13.30
2018-04-15T18:52:56.761Z,14.97
2018-04-15T18:55:29.435Z,14.80
2018-04-15T18:58:00.029Z,14.30
2018-04-15T19:00:32.036Z,17.77
2018-04-15T19:03:09.999Z,15.40
2018-04-15T19:05:38.322Z,15.27
2018-04-15T19:08:06.896Z,15.27
2018-04-15T19:10:37.466Z,14.83
2018-04-15T19:13:06.138Z,15.87
2018-04-15T19:15:35.246Z,17.13
2018-04-15T19:18:06.219Z,16.70
2018-04-15T19:20:36.312Z,15.60
2018-04-15T19:23:09.392Z,17.30
2018-04-15T19:25:37.990Z,17.53
2018-04-15T19:28:06.389Z,16.53
2018-04-15T19:30:39.845Z,17.50
2018-04-15T19:33:09.257Z,16.63
2018-04-15T19:35:41.756Z,16.77
2018-04-15T19:38:11.495Z,16.73
2018-04-15T19:40:41.240Z,17.63
2018-04-15T19:43:10.907Z,15.27
2018-04-15T19:45:40.467Z,15.80
2018-04-15T19:48:11.176Z,17.73
2018-04-15T19:50:42.342Z,17.17
2018-04-15T19:53:25.221Z,17.70
2018-04-15T19:55:54.795Z,18.93
2018-04-15T19:58:31.397Z,17.90
2018-04-15T20:01:00.076Z,18.63
2018-04-15T20:03:28.831Z,18.73
2018-04-15T20:05:58.186Z,18.67
2018-04-15T20:08:27.110Z,17.37
2018-04-15T20:10:55.865Z,18.10
2018-04-15T20:13:26.446Z,18.90
2018-04-15T20:15:56.052Z,16.40
2018-04-15T20:18:27.282Z,18.10
2018-04-15T20:20:56.751Z,17.67
2018-04-15T20:23:25.261Z,17.90
2018-04-15T20:25:59.383Z,15.70
2018-04-15T20:28:45.840Z,15.97
2018-04-15T20:31:18.938Z,15.10
2018-04-15T20:33:48.642Z,14.13
2018-04-15T20:36:19.563Z,14.47
2018-04-15T20:38:48.370Z,14.00
2018-04-15T20:41:19.766Z,12.60
2018-04-15T20:43:55.217Z,13.07
2018-04-15T20:46:39.466Z,12.73
2018-04-15T20:49:11.418Z,11.40
2018-04-15T20:51:42.669Z,13.10
2018-04-15T20:54:13.755Z,12.23
2018-04-15T20:56:43.004Z,13.27
2018-04-15T20:59:19.542Z,11.30
2018-04-15T21:01:52.520Z,12.77
2018-04-15T21:04:22.475Z,14.00
2018-04-15T21:06:52.519Z,13.70
2018-04-15T21:09:23.983Z,13.30
2018-04-15T21:11:53.669Z,13.77
2018-04-15T21:14:23.234Z,13.90
2018-04-15T21:16:53.555Z,15.67
2018-04-15T21:19:26.065Z,14.90
2018-04-15T21:21:55.727Z,15.20
2018-04-15T21:24:24.054Z,16.50
2018-04-15T21:26:52.435Z,16.47
2018-04-15T21:29:21.748Z,17.33
2018-04-15T21:31:51.822Z,18.00
2018-04-15T21:34:20.148Z,16.73
2018-04-15T21:36:49.164Z,15.70
2018-04-15T21:39:19.171Z,17.97
2018-04-15T21:41:47.759Z,16.83
2018-04-15T21:44:16.076Z,16.77
2018-04-15T21:46:46.294Z,16.73
2018-04-15T21:49:14.620Z,17.73
2018-04-15T21:51:49.240Z,17.57
2018-04-15T21:54:18.681Z,16.20
2018-04-15T21:56:47.842Z,16.03
2018-04-15T21:59:16.671Z,15.47
2018-04-15T22:01:45.029Z,15.80
2018-04-15T22:04:15.024Z,14.83
2018-04-15T22:06:43.486Z,17.27
2018-04-15T22:09:11.827Z,17.40
2018-04-15T22:11:53.348Z,16.23
2018-04-15T22:14:21.636Z,17.03
2018-04-15T22:16:49.949Z,17.23
2018-04-15T22:19:19.152Z,17.67
2018-04-15T22:21:48.228Z,18.17
2018-04-15T22:24:16.517Z,18.17
2018-04-15T22:26:45.909Z,16.60
2018-04-15T22:29:14.309Z,17.47
2018-04-15T22:31:42.585Z,17.33
2018-04-15T22:34:11.689Z,17.60
2018-04-15T22:36:39.982Z,18.73
2018-04-15T22:39:08.290Z,18.30
2018-04-15T22:41:38.027Z,17.83
2018-04-15T22:44:08.141Z,18.50
2018-04-15T22:46:36.447Z,18.20
2018-04-15T22:49:10.493Z,18.57
2018-04-15T22:51:39.721Z,18.00
2018-04-15T22:54:08.012Z,18.47
2018-04-15T22:56:42.624Z,19.93
2018-04-15T22:59:11.698Z,20.20
2018-04-15T23:01:40.001Z,18.50
2018-04-15T23:04:09.814Z,19.10
2018-04-15T23:06:38.855Z,21.27
2018-04-15T23:09:07.145Z,21.23
2018-04-15T23:11:37.240Z,22.13
2018-04-15T23:14:07.096Z,21.17
2018-04-15T23:16:35.389Z,20.13
2018-04-15T23:19:04.814Z,20.43
2018-04-15T23:21:33.090Z,20.17
2018-04-15T23:24:02.163Z,19.73
2018-04-15T23:26:31.931Z,21.87
2018-04-15T23:29:00.220Z,22.90
2018-04-15T23:31:32.345Z,20.20
2018-04-15T23:34:01.444Z,20.67
2018-04-15T23:36:29.737Z,21.63
2018-04-15T23:38:59.147Z,21.83
2018-04-15T23:41:28.205Z,19.47
2018-04-15T23:43:56.511Z,19.97
2018-04-15T23:46:25.658Z,18.20
2018-04-15T23:48:53.951Z,19.23
2018-04-15T23:51:22.263Z,17.83
2018-04-15T23:53:50.955Z,18.43
2018-04-15T23:56:19.269Z,16.90
2018-04-15T23:58:48.332Z,19.07
